Time;durP1;ratioP1;P1;durP2;ratioP2;P2;SDS_P1;SDS_P2;PMS_P1;PMS_P2;Temp;Humidity;BMP_temperature;BMP_pressure;BME280_temperature;BME280_humidity;BME280_pressure;Samples;Min_cycle;Max_cycle;Signal;HPM_P1;HPM_P2
2021/07/27 00:01:58;;;;;;;2.23;1.73;;;;;;;20.38;99.99;100616.22;5073104;28;20453;-70
2021/07/27 00:04:26;;;;;;;3.87;2.50;;;;;;;20.38;100.00;100610.72;5073174;28;20457;-69
2021/07/27 00:06:52;;;;;;;5.23;2.40;;;;;;;20.38;100.00;100605.22;5073090;28;20488;-70
2021/07/27 00:09:18;;;;;;;3.93;2.20;;;;;;;20.36;100.00;100604.78;5073087;28;20441;-70
2021/07/27 00:11:45;;;;;;;4.30;2.30;;;;;;;20.31;100.00;100609.78;5072994;28;20469;-70
2021/07/27 00:14:11;;;;;;;7.47;2.30;;;;;;;20.33;100.00;100605.53;5073089;28;20445;-69
2021/07/27 00:16:38;;;;;;;4.13;2.23;;;;;;;20.35;100.00;100610.66;5073129;28;20455;-70
2021/07/27 00:19:04;;;;;;;2.60;1.70;;;;;;;20.32;100.00;100601.19;5072973;28;20450;-70
2021/07/27 00:21:32;;;;;;;3.37;2.20;;;;;;;20.31;100.00;100605.06;5072606;28;20989;-69
2021/07/27 00:23:58;;;;;;;5.13;2.10;;;;;;;20.31;100.00;100599.56;5073301;28;20445;-70
2021/07/27 00:26:25;;;;;;;2.53;1.93;;;;;;;20.31;100.00;100598.78;5072888;28;20480;-70
2021/07/27 00:28:51;;;;;;;2.37;2.03;;;;;;;20.30;100.00;100603.50;5072949;28;20499;-70
2021/07/27 00:31:19;;;;;;;2.60;2.20;;;;;;;20.30;100.00;100598.00;5072619;28;20465;-69
2021/07/27 00:33:45;;;;;;;2.97;2.20;;;;;;;20.30;100.00;100597.19;5073349;28;20519;-70
2021/07/27 00:36:11;;;;;;;3.20;2.50;;;;;;;20.28;100.00;100594.81;5076472;28;20819;-70
2021/07/27 00:38:39;;;;;;;5.60;2.60;;;;;;;20.24;100.00;100588.47;5076820;28;20445;-70
2021/07/27 00:41:06;;;;;;;3.20;2.37;;;;;;;20.23;100.00;100581.38;5076743;28;20469;-70
2021/07/27 00:43:32;;;;;;;3.70;2.60;;;;;;;20.25;100.00;100587.28;5076334;28;20436;-70
2021/07/27 00:46:00;;;;;;;4.93;2.40;;;;;;;20.23;100.00;100586.88;5076434;28;20476;-69
2021/07/27 00:48:26;;;;;;;4.60;2.90;;;;;;;20.19;100.00;100580.53;5086140;28;20535;-70
2021/07/27 00:50:53;;;;;;;4.77;2.97;;;;;;;20.20;100.00;100579.34;5087903;28;20483;-70
2021/07/27 00:53:20;;;;;;;4.70;2.40;;;;;;;20.19;100.00;100580.53;5076605;28;20468;-70
2021/07/27 00:55:49;;;;;;;4.10;2.30;;;;;;;20.17;100.00;100583.63;5092098;28;20802;-70
2021/07/27 00:58:15;;;;;;;3.23;2.10;;;;;;;20.18;100.00;100589.91;5096705;28;20436;-70
2021/07/27 01:00:42;;;;;;;3.43;2.30;;;;;;;20.19;100.00;100591.53;5096632;28;20459;-69
2021/07/27 01:03:09;;;;;;;3.50;2.07;;;;;;;20.16;100.00;100593.03;5096631;28;20514;-70
2021/07/27 01:05:35;;;;;;;5.43;2.93;;;;;;;20.18;100.00;100592.66;5096496;28;20495;-69
2021/07/27 01:08:02;;;;;;;3.83;2.23;;;;;;;20.17;100.00;100589.13;5080123;28;20444;-69
2021/07/27 01:10:28;;;;;;;4.33;2.23;;;;;;;20.18;100.00;100584.41;5076102;28;20457;-70
2021/07/27 01:12:56;;;;;;;2.37;1.63;;;;;;;20.17;100.00;100585.56;5075806;28;20957;-70
2021/07/27 01:15:23;;;;;;;2.70;2.07;;;;;;;20.16;100.00;100587.53;5076081;28;20448;-70
2021/07/27 01:17:50;;;;;;;2.77;2.13;;;;;;;20.16;100.00;100582.03;5075754;28;20812;-74
2021/07/27 01:20:24;;;;;;;3.27;2.23;;;;;;;20.13;100.00;100576.47;5075863;28;20960;-73
2021/07/27 01:39:23;;;;;;;5.00;2.53;;;;;;;20.11;100.00;100581.56;5095710;28;20466;-72
2021/07/27 01:42:08;;;;;;;5.03;2.30;;;;;;;20.13;100.00;100580.00;5102223;28;21006;-72
2021/07/27 01:44:42;;;;;;;4.50;2.40;;;;;;;20.22;100.00;100578.97;5095994;28;20421;-72
2021/07/27 01:47:08;;;;;;;2.97;2.23;;;;;;;20.22;100.00;100585.28;5095281;28;20530;-72
2021/07/27 01:49:35;;;;;;;2.83;1.97;;;;;;;20.24;100.00;100588.47;5095749;28;20440;-72
2021/07/27 01:52:01;;;;;;;2.90;1.83;;;;;;;20.28;100.00;100586.56;5095620;28;20514;-73
2021/07/27 01:54:40;;;;;;;4.97;2.93;;;;;;;20.31;100.00;100585.81;5095655;28;20436;-72
2021/07/27 01:57:07;;;;;;;6.23;2.53;;;;;;;20.37;100.00;100584.38;5095630;28;20448;-72
2021/07/27 01:59:33;;;;;;;3.23;2.30;;;;;;;20.40;100.00;100583.63;5095515;28;20441;-73
2021/07/27 02:01:59;;;;;;;2.87;2.30;;;;;;;20.39;100.00;100587.53;5095065;28;20469;-73
2021/07/27 02:04:26;;;;;;;4.67;2.50;;;;;;;20.46;100.00;100589.63;5095445;28;20448;-73
2021/07/27 02:06:52;;;;;;;8.00;2.63;;;;;;;20.49;100.00;100583.41;5094980;28;21021;-72
2021/07/27 02:09:19;;;;;;;3.03;2.00;;;;;;;20.48;100.00;100581.81;5095393;28;20445;-73
2021/07/27 02:11:48;;;;;;;4.20;2.70;;;;;;;20.47;100.00;100587.66;5095250;28;20479;-72
2021/07/27 02:14:17;;;;;;;2.60;2.07;;;;;;;20.45;100.00;100587.22;5095290;28;20501;-72
2021/07/27 02:16:43;;;;;;;2.97;2.00;;;;;;;20.42;100.00;100592.31;5094854;28;20930;-72
2021/07/27 02:19:10;;;;;;;4.20;2.20;;;;;;;20.38;100.00;100580.44;5094840;28;20985;-72
2021/07/27 02:21:36;;;;;;;5.37;2.67;;;;;;;20.41;100.00;100587.97;5095060;28;20463;-72
2021/07/27 02:24:04;;;;;;;3.50;2.63;;;;;;;20.41;100.00;100590.72;5095040;28;20448;-72
2021/07/27 02:26:31;;;;;;;3.87;2.30;;;;;;;20.40;100.00;100591.88;5094963;28;20514;-72
2021/07/27 02:28:59;;;;;;;3.40;2.30;;;;;;;20.43;100.00;100595.84;5095002;28;20440;-72
2021/07/27 02:31:31;;;;;;;2.97;2.00;;;;;;;20.41;100.00;100592.69;5094666;28;20483;-72
2021/07/27 02:33:58;;;;;;;3.07;2.07;;;;;;;20.40;100.00;100580.84;5094903;28;20569;-72
2021/07/27 02:36:25;;;;;;;2.67;1.97;;;;;;;20.43;100.00;100579.34;5094657;28;20436;-73
2021/07/27 02:38:51;;;;;;;1.87;1.77;;;;;;;20.38;100.00;100580.44;5094753;28;20463;-72
2021/07/27 02:41:31;;;;;;;4.73;2.17;;;;;;;20.39;100.00;100581.25;5094673;28;20480;-73
2021/07/27 02:43:59;;;;;;;4.33;2.20;;;;;;;20.41;100.00;100581.69;5094710;28;20828;-72
2021/07/27 02:46:25;;;;;;;2.20;1.80;;;;;;;20.39;100.00;100584.00;5094728;28;20861;-72
2021/07/27 02:49:01;;;;;;;6.60;2.67;;;;;;;20.37;100.00;100587.13;5094260;28;20937;-72
2021/07/27 02:51:28;;;;;;;3.60;2.00;;;;;;;20.36;100.00;100584.72;5094516;28;20452;-72
2021/07/27 02:53:54;;;;;;;4.27;2.10;;;;;;;20.35;100.00;100589.44;5094394;28;20533;-72
2021/07/27 02:56:21;;;;;;;2.60;1.90;;;;;;;20.31;100.00;100577.56;5094418;28;20444;-72
2021/07/27 02:58:47;;;;;;;4.60;2.23;;;;;;;20.28;100.00;100578.31;5093460;28;20472;-72
2021/07/27 03:01:15;;;;;;;2.40;1.73;;;;;;;20.25;100.00;100583.75;5094279;28;20456;-72
2021/07/27 03:03:41;;;;;;;2.60;1.97;;;;;;;20.23;100.00;100586.06;5093952;28;20956;-72
2021/07/27 03:06:11;;;;;;;3.03;2.00;;;;;;;20.21;100.00;100575.44;5094156;28;20480;-72
2021/07/27 03:08:50;;;;;;;3.33;2.13;;;;;;;20.19;100.00;100576.94;5094198;28;20448;-71
2021/07/27 03:11:17;;;;;;;3.63;2.50;;;;;;;20.15;100.00;100585.16;5094186;28;20514;-71
2021/07/27 03:13:44;;;;;;;3.10;1.80;;;;;;;20.13;100.00;100579.22;5094151;28;20447;-71
2021/07/27 03:16:16;;;;;;;2.80;2.20;;;;;;;20.11;100.00;100584.31;5094033;28;20448;-71
2021/07/27 03:18:43;;;;;;;5.50;2.60;;;;;;;20.12;100.00;100588.63;5094059;28;20456;-71
2021/07/27 03:21:10;;;;;;;5.77;2.10;;;;;;;20.09;100.00;100587.41;5093952;28;20484;-71
2021/07/27 03:23:36;;;;;;;2.20;1.63;;;;;;;20.10;100.00;100589.00;5093934;28;20447;-72
2021/07/27 03:26:03;;;;;;;3.00;2.67;;;;;;;20.00;100.00;100589.59;5093642;28;20511;-71
2021/07/27 03:28:29;;;;;;;2.53;1.90;;;;;;;19.95;99.31;100591.84;5093557;28;20934;-71
2021/07/27 03:30:55;;;;;;;2.10;1.70;;;;;;;19.90;99.36;100592.94;5093597;28;20440;-71
2021/07/27 03:33:23;;;;;;;4.00;2.10;;;;;;;19.83;100.00;100588.13;5093817;28;20416;-71
2021/07/27 03:35:50;;;;;;;2.43;1.83;;;;;;;19.87;100.00;100597.19;5093745;28;20531;-72
2021/07/27 03:38:16;;;;;;;2.83;2.03;;;;;;;19.86;100.00;100603.88;5093799;28;20957;-71
2021/07/27 03:40:43;;;;;;;7.10;3.07;;;;;;;19.87;100.00;100602.69;5100364;28;20444;-71
2021/07/27 03:43:09;;;;;;;2.40;2.20;;;;;;;19.86;100.00;100603.88;5093269;28;20881;-71
2021/07/27 03:45:35;;;;;;;2.83;2.13;;;;;;;19.87;100.00;100613.69;5093661;28;20432;-72
2021/07/27 03:48:02;;;;;;;2.70;1.67;;;;;;;19.81;100.00;100620.66;5093538;28;20487;-71
2021/07/27 03:50:30;;;;;;;3.93;2.47;;;;;;;19.80;100.00;100621.81;5093600;28;20444;-72
2021/07/27 03:52:56;;;;;;;3.63;2.50;;;;;;;19.81;100.00;100620.66;5093418;28;20468;-72
2021/07/27 03:55:22;;;;;;;2.97;1.97;;;;;;;19.79;100.00;100614.75;5093498;28;20437;-71
2021/07/27 03:57:49;;;;;;;4.63;2.30;;;;;;;19.81;100.00;100623.41;5093471;28;20904;-72
2021/07/27 04:00:16;;;;;;;3.53;2.40;;;;;;;19.83;100.00;100628.53;5093408;28;20451;-72
2021/07/27 04:02:42;;;;;;;4.13;2.33;;;;;;;19.82;100.00;100627.75;5093368;28;20471;-71
2021/07/27 04:05:09;;;;;;;4.20;2.73;;;;;;;19.85;100.00;100628.97;5093459;28;20451;-71
2021/07/27 04:07:37;;;;;;;3.37;1.77;;;;;;;19.87;100.00;100638.44;5093001;28;21055;-72
2021/07/27 04:10:05;;;;;;;2.67;2.00;;;;;;;19.88;100.00;100631.81;5104382;28;20539;-71
2021/07/27 04:12:31;;;;;;;3.20;2.13;;;;;;;19.93;100.00;100632.69;5113237;28;20455;-71
2021/07/27 04:14:58;;;;;;;4.20;2.27;;;;;;;19.94;100.00;100639.75;5113585;28;20443;-72
2021/07/27 04:17:24;;;;;;;2.37;2.00;;;;;;;19.94;100.00;100637.81;5113627;28;20439;-73
2021/07/27 04:19:51;;;;;;;2.43;1.67;;;;;;;19.96;100.00;100640.97;5112974;28;20542;-72
2021/07/27 04:22:17;;;;;;;4.20;2.67;;;;;;;19.99;100.00;100642.22;5113164;28;20972;-73
2021/07/27 04:24:45;;;;;;;2.47;2.00;;;;;;;20.01;100.00;100650.88;5113564;28;20443;-73
2021/07/27 04:27:11;;;;;;;3.73;2.30;;;;;;;20.00;100.00;100652.84;5113361;28;20487;-73
2021/07/27 04:29:38;;;;;;;4.20;2.40;;;;;;;20.03;100.00;100654.88;5113508;28;20848;-73
2021/07/27 04:32:05;;;;;;;5.80;2.13;;;;;;;20.04;100.00;100648.19;5113029;28;20475;-72
2021/07/27 04:34:31;;;;;;;1.67;1.57;;;;;;;20.06;100.00;100647.84;5113458;28;20436;-73
2021/07/27 04:36:58;;;;;;;3.80;2.23;;;;;;;20.08;100.00;100656.53;5113054;28;20438;-72
2021/07/27 04:39:24;;;;;;;4.20;2.30;;;;;;;20.10;100.00;100646.75;5113381;28;20442;-69
2021/07/27 04:41:52;;;;;;;4.20;2.43;;;;;;;20.15;100.00;100640.97;5112966;28;20459;-69
2021/07/27 04:44:18;;;;;;;3.53;2.60;;;;;;;20.16;100.00;100644.50;5113318;28;20435;-69
2021/07/27 04:46:47;;;;;;;3.30;2.50;;;;;;;20.21;100.00;100635.16;5113226;28;20492;-73
2021/07/27 04:49:14;;;;;;;12.63;3.30;;;;;;;20.24;100.00;100653.69;5113019;28;21062;-69
2021/07/27 04:51:40;;;;;;;3.87;2.43;;;;;;;20.28;100.00;100649.84;5113331;28;20524;-69
2021/07/27 04:54:13;;;;;;;3.50;2.50;;;;;;;20.33;100.00;100657.78;5106962;28;20452;-69
2021/07/27 04:56:39;;;;;;;3.43;2.10;;;;;;;20.41;100.00;100654.00;5092667;28;20516;-69
2021/07/27 04:59:07;;;;;;;3.00;2.53;;;;;;;20.48;100.00;100644.31;5092855;28;20451;-69
2021/07/27 05:01:33;;;;;;;3.00;2.50;;;;;;;20.53;100.00;100655.00;5097377;28;20482;-69
2021/07/27 05:04:00;;;;;;;3.97;2.10;;;;;;;20.57;100.00;100655.88;5112759;28;20794;-69
2021/07/27 05:06:26;;;;;;;3.23;1.93;;;;;;;20.59;99.30;100653.56;5113040;28;20479;-68
2021/07/27 05:08:53;;;;;;;3.40;2.30;;;;;;;20.65;98.66;100657.59;5113116;28;20442;-68
2021/07/27 05:11:19;;;;;;;4.13;2.50;;;;;;;20.69;98.53;100658.44;5113016;28;20463;-68
2021/07/27 05:13:46;;;;;;;4.30;2.50;;;;;;;20.71;99.27;100658.84;5113083;28;20432;-68
2021/07/27 05:16:19;;;;;;;7.17;2.43;;;;;;;20.71;98.84;100661.63;5112723;28;20833;-68
2021/07/27 05:18:45;;;;;;;3.27;2.27;;;;;;;20.79;98.23;100660.56;5113070;28;20519;-68
2021/07/27 05:21:12;;;;;;;2.60;2.03;;;;;;;20.88;97.80;100663.88;5113620;28;20988;-68
2021/07/27 05:23:38;;;;;;;3.20;2.30;;;;;;;20.92;97.91;100670.22;5116428;28;20439;-68
2021/07/27 05:26:05;;;;;;;2.83;2.20;;;;;;;20.95;97.33;100665.16;5116278;28;20893;-68
2021/07/27 05:28:32;;;;;;;2.27;2.07;;;;;;;20.92;97.88;100667.47;5116535;28;20573;-68
2021/07/27 05:30:58;;;;;;;2.73;1.83;;;;;;;21.02;97.22;100655.03;5116248;28;20444;-68
2021/07/27 05:33:27;;;;;;;2.97;1.97;;;;;;;21.09;95.98;100668.13;5116497;28;20428;-68
2021/07/27 05:35:54;;;;;;;3.33;2.23;;;;;;;21.13;95.82;100668.97;5116370;28;20826;-68
2021/07/27 05:38:20;;;;;;;6.77;2.17;;;;;;;21.18;95.45;100668.66;5116349;28;20439;-68
2021/07/27 05:40:51;;;;;;;4.90;2.27;;;;;;;21.27;94.86;100673.91;5122562;28;20446;-68
2021/07/27 05:43:17;;;;;;;2.60;1.83;;;;;;;21.36;94.08;100672.50;5116342;28;20428;-69
2021/07/27 05:45:44;;;;;;;3.73;2.40;;;;;;;21.42;93.70;100667.44;5116260;28;20444;-69
2021/07/27 05:48:10;;;;;;;2.90;2.30;;;;;;;21.47;93.51;100680.09;5116056;28;20486;-69
2021/07/27 05:50:38;;;;;;;4.43;2.03;;;;;;;21.52;93.08;100682.56;5116127;28;20435;-68
2021/07/27 05:53:05;;;;;;;5.20;2.70;;;;;;;21.58;93.06;100679.09;5115973;28;20466;-68
2021/07/27 05:55:31;;;;;;;3.77;2.00;;;;;;;21.65;93.28;100681.97;5115540;28;20440;-73
2021/07/27 05:57:57;;;;;;;3.17;1.93;;;;;;;21.73;93.05;100685.56;5116026;28;20818;-73
2021/07/27 06:00:24;;;;;;;3.30;1.97;;;;;;;21.83;92.06;100692.44;5116029;28;20439;-74
2021/07/27 06:02:50;;;;;;;5.70;3.03;;;;;;;22.04;91.38;100691.88;5115724;28;20870;-73
2021/07/27 06:05:17;;;;;;;4.10;2.37;;;;;;;22.22;89.63;100692.88;5115909;28;20443;-73
2021/07/27 06:07:45;;;;;;;4.80;1.97;;;;;;;22.32;89.12;100694.19;5115839;28;20487;-73
2021/07/27 06:10:12;;;;;;;3.13;1.80;;;;;;;22.37;85.39;100691.88;5115768;28;20436;-73
2021/07/27 06:12:38;;;;;;;2.27;1.47;;;;;;;22.41;86.20;100692.72;5115602;28;20471;-73
2021/07/27 06:15:06;;;;;;;3.57;1.90;;;;;;;22.46;85.12;100696.31;5115631;28;20458;-73
2021/07/27 06:17:33;;;;;;;5.57;2.10;;;;;;;22.52;85.05;100695.56;5115614;28;20446;-73
2021/07/27 06:19:59;;;;;;;3.63;1.77;;;;;;;22.51;83.88;100695.97;5115032;28;20455;-73
2021/07/27 06:22:25;;;;;;;2.73;1.80;;;;;;;22.56;83.89;100693.63;5115365;28;20463;-73
2021/07/27 06:24:54;;;;;;;2.90;1.90;;;;;;;22.57;84.93;100697.19;5115433;28;20451;-73
2021/07/27 06:27:21;;;;;;;10.10;2.30;;;;;;;22.57;84.52;100699.97;5115363;28;20490;-73
2021/07/27 06:29:48;;;;;;;3.80;1.90;;;;;;;22.62;82.24;100697.66;5115528;28;20447;-73
2021/07/27 06:32:14;;;;;;;3.03;2.20;;;;;;;22.71;82.69;100696.53;5114877;28;20597;-73
2021/07/27 06:34:40;;;;;;;3.97;2.40;;;;;;;22.75;83.91;100702.88;5115247;28;20448;-73
2021/07/27 06:37:07;;;;;;;5.67;1.93;;;;;;;22.71;82.37;100702.88;5115190;28;20439;-73
2021/07/27 06:39:34;;;;;;;3.70;2.30;;;;;;;22.76;82.59;100699.75;5115148;28;20443;-73
2021/07/27 06:42:01;;;;;;;2.40;1.80;;;;;;;22.80;82.82;100695.06;5115060;28;20456;-73
2021/07/27 06:44:28;;;;;;;3.63;2.40;;;;;;;22.81;83.08;100690.31;5114832;28;20932;-73
2021/07/27 06:46:54;;;;;;;3.20;2.00;;;;;;;22.88;82.80;100693.13;5114583;28;20439;-73
2021/07/27 06:49:21;;;;;;;4.57;2.00;;;;;;;22.82;81.74;100705.72;5114979;28;20446;-73
2021/07/27 06:51:48;;;;;;;3.03;1.57;;;;;;;22.86;82.60;100699.03;5114858;28;20455;-73
2021/07/27 06:54:14;;;;;;;4.57;2.10;;;;;;;22.86;82.65;100710.09;5114903;28;20471;-73
2021/07/27 06:56:43;;;;;;;2.50;1.73;;;;;;;22.89;81.94;100712.13;5114315;28;20830;-73
2021/07/27 06:59:11;;;;;;;1.60;1.50;;;;;;;22.87;82.50;100706.16;5114658;28;20455;-73
2021/07/27 07:01:37;;;;;;;3.70;2.23;;;;;;;22.94;81.98;100711.00;5114709;28;20463;-73
2021/07/27 07:04:04;;;;;;;2.27;1.70;;;;;;;23.00;82.79;100705.91;5114672;28;20443;-72
2021/07/27 07:06:31;;;;;;;3.03;1.83;;;;;;;23.08;83.54;100713.06;5114304;28;20959;-73
2021/07/27 07:08:57;;;;;;;2.80;1.90;;;;;;;23.09;83.75;100715.44;5114493;28;20484;-72
2021/07/27 07:11:26;;;;;;;2.90;2.00;;;;;;;23.16;83.06;100723.00;5114145;28;20844;-72
2021/07/27 07:13:52;;;;;;;2.70;1.80;;;;;;;23.22;81.69;100727.00;5114477;28;20458;-73
2021/07/27 07:16:20;;;;;;;2.60;1.60;;;;;;;23.26;80.63;100727.81;5114400;28;20440;-73
2021/07/27 07:18:46;;;;;;;1.73;1.57;;;;;;;23.34;80.92;100725.91;5114124;28;20815;-73
2021/07/27 07:21:13;;;;;;;3.20;1.90;;;;;;;23.38;78.91;100729.47;5114285;28;20467;-72
2021/07/27 07:23:39;;;;;;;2.07;1.80;;;;;;;23.47;78.85;100726.38;5113979;28;20465;-72
2021/07/27 07:26:08;;;;;;;3.40;1.57;;;;;;;23.49;79.24;100722.03;5114283;28;20440;-73
2021/07/27 07:28:37;;;;;;;2.83;2.00;;;;;;;23.53;79.17;100720.09;5114181;28;20484;-73
2021/07/27 07:31:03;;;;;;;2.97;1.80;;;;;;;23.60;78.89;100720.13;5113866;28;20431;-73
2021/07/27 07:33:31;;;;;;;3.60;2.20;;;;;;;23.66;79.96;100717.81;5115504;28;20428;-73
2021/07/27 07:35:58;;;;;;;2.83;1.70;;;;;;;23.71;78.50;100716.66;5114117;28;20447;-73
2021/07/27 07:38:24;;;;;;;2.93;1.80;;;;;;;23.75;77.62;100726.56;5114128;28;20448;-73
2021/07/27 07:40:50;;;;;;;3.70;1.53;;;;;;;23.78;77.80;100731.31;5120559;28;20534;-73
2021/07/27 07:43:17;;;;;;;4.30;2.03;;;;;;;23.77;78.65;100724.19;5113756;28;20450;-73
2021/07/27 07:45:43;;;;;;;5.83;2.17;;;;;;;23.83;77.98;100728.19;5113736;28;20440;-73
2021/07/27 07:48:10;;;;;;;4.53;1.70;;;;;;;23.88;77.82;100727.03;5113839;28;20482;-73
2021/07/27 07:50:37;;;;;;;2.13;1.50;;;;;;;23.91;78.72;100724.28;5113918;28;20440;-73
2021/07/27 07:53:04;;;;;;;2.20;1.50;;;;;;;23.98;77.83;100728.25;5113777;28;20463;-73
2021/07/27 07:55:31;;;;;;;3.10;1.60;;;;;;;24.08;77.05;100721.94;5113503;28;20446;-73
2021/07/27 07:58:00;;;;;;;2.33;1.77;;;;;;;24.12;74.62;100728.28;5113646;28;20443;-74
2021/07/27 08:00:27;;;;;;;2.90;1.90;;;;;;;24.20;73.23;100718.03;5113786;28;20455;-73
2021/07/27 08:02:54;;;;;;;1.63;1.47;;;;;;;24.22;74.13;100721.22;5113782;28;20475;-73
2021/07/27 08:05:21;;;;;;;3.03;2.00;;;;;;;24.24;74.70;100714.09;5113756;28;20431;-73
2021/07/27 08:07:49;;;;;;;2.40;1.70;;;;;;;24.25;73.34;100726.75;5113141;28;20575;-74
2021/07/27 08:10:16;;;;;;;1.73;1.27;;;;;;;24.31;73.24;100718.88;5113304;28;20957;-74
2021/07/27 08:12:46;;;;;;;3.10;1.60;;;;;;;24.41;74.29;100707.06;5113230;28;20892;-73
2021/07/27 08:15:12;;;;;;;1.97;1.70;;;;;;;24.51;72.08;100708.25;5113894;28;20435;-73
2021/07/27 08:17:39;;;;;;;4.53;2.23;;;;;;;24.53;71.69;100715.00;5113591;28;20439;-72
2021/07/27 08:20:07;;;;;;;2.63;1.97;;;;;;;24.59;72.84;100701.56;5113573;28;20858;-72
2021/07/27 08:22:36;;;;;;;2.77;1.77;;;;;;;24.59;70.87;100713.41;5113459;28;20451;-73
2021/07/27 08:25:05;;;;;;;3.57;1.50;;;;;;;24.60;65.05;100714.22;5113564;28;20435;-73
2021/07/27 08:27:32;;;;;;;1.57;1.20;;;;;;;24.59;67.08;100715.41;5113410;28;20479;-72
2021/07/27 08:29:58;;;;;;;4.20;1.13;;;;;;;24.66;67.36;100715.44;5113426;28;20446;-72
2021/07/27 08:32:24;;;;;;;2.30;1.37;;;;;;;24.70;66.47;100710.66;5113071;28;20479;-73
2021/07/27 08:34:51;;;;;;;3.67;2.63;;;;;;;24.77;68.15;100710.66;5113389;28;20446;-73
2021/07/27 08:37:17;;;;;;;2.00;1.50;;;;;;;24.82;69.22;100713.03;5113404;28;20442;-72
2021/07/27 08:39:44;;;;;;;2.43;1.90;;;;;;;24.86;67.12;100713.06;5113369;28;20500;-73
2021/07/27 08:42:11;;;;;;;2.53;1.50;;;;;;;24.98;64.97;100709.88;5112979;28;20976;-72
2021/07/27 08:44:38;;;;;;;1.37;1.27;;;;;;;25.07;65.17;100706.72;5113359;28;20432;-73
2021/07/27 08:47:06;;;;;;;2.60;1.60;;;;;;;25.09;63.98;100713.47;5113270;28;20438;-72
2021/07/27 08:49:33;;;;;;;1.83;1.43;;;;;;;25.15;65.80;100711.09;5113244;28;20691;-72
2021/07/27 08:52:01;;;;;;;3.37;1.67;;;;;;;25.20;65.07;100719.00;5112870;28;20972;-72
2021/07/27 08:54:27;;;;;;;2.00;1.50;;;;;;;25.21;65.96;100715.03;5113232;28;20493;-73
2021/07/27 08:56:54;;;;;;;3.03;1.80;;;;;;;25.25;65.74;100717.81;5115437;28;20446;-72
2021/07/27 08:59:23;;;;;;;2.20;1.67;;;;;;;25.33;65.68;100728.50;5116707;28;20435;-72
2021/07/27 09:01:52;;;;;;;1.60;1.37;;;;;;;25.37;65.81;100717.41;5096552;28;20487;-72
2021/07/27 09:04:27;;;;;;;3.30;1.97;;;;;;;25.41;65.25;100729.25;5096596;28;20445;-72
2021/07/27 09:06:58;;;;;;;2.03;1.53;;;;;;;25.45;65.48;100718.16;5096589;28;20419;-72
2021/07/27 09:09:29;;;;;;;4.70;1.97;;;;;;;25.53;63.26;100720.53;5096527;28;20464;-72
2021/07/27 09:11:56;;;;;;;3.20;1.80;;;;;;;25.61;62.86;100727.66;5096042;28;20994;-72
2021/07/27 09:14:24;;;;;;;2.33;2.10;;;;;;;25.65;62.34;100722.09;5096425;28;20455;-72
2021/07/27 09:16:53;;;;;;;1.50;1.33;;;;;;;25.71;63.06;100734.34;5096397;28;20441;-72
2021/07/27 09:19:20;;;;;;;4.63;1.90;;;;;;;25.79;60.74;100721.28;5096316;28;20440;-72
2021/07/27 09:21:47;;;;;;;1.90;1.50;;;;;;;25.84;61.26;100723.66;5096200;28;20460;-72
2021/07/27 09:24:24;;;;;;;1.33;1.20;;;;;;;25.84;61.39;100723.66;5096213;28;20440;-72
2021/07/27 09:26:57;;;;;;;2.80;1.40;;;;;;;25.86;65.83;100730.38;5095886;28;20902;-72
2021/07/27 09:29:27;;;;;;;2.00;1.50;;;;;;;25.96;62.28;100722.41;5096060;28;20487;-70
2021/07/27 09:31:55;;;;;;;1.43;1.10;;;;;;;26.08;63.59;100728.31;5095737;28;20521;-72
2021/07/27 09:34:23;;;;;;;2.73;1.87;;;;;;;26.18;62.31;100740.56;5095977;28;20440;-72
2021/07/27 09:36:59;;;;;;;2.20;1.40;;;;;;;26.27;60.60;100740.13;5095967;28;20806;-72
2021/07/27 09:39:26;;;;;;;2.60;1.27;;;;;;;26.33;59.91;100727.38;5095970;28;20420;-71
2021/07/27 09:41:58;;;;;;;1.60;1.50;;;;;;;26.34;59.16;100727.00;5100166;28;20538;-72
2021/07/27 09:44:27;;;;;;;2.43;1.80;;;;;;;26.31;59.80;100733.34;5097702;28;20417;-72
2021/07/27 09:46:55;;;;;;;4.27;1.77;;;;;;;26.31;60.94;100724.22;5095472;28;20938;-72
2021/07/27 09:49:22;;;;;;;3.00;1.67;;;;;;;26.50;61.28;100732.06;5095693;28;20483;-72
2021/07/27 09:51:49;;;;;;;3.00;1.63;;;;;;;26.72;56.46;100732.72;5095611;28;20871;-74
2021/07/27 09:54:17;;;;;;;4.50;2.17;;;;;;;26.82;55.41;100722.72;5095639;28;20440;-74
2021/07/27 09:56:44;;;;;;;1.63;1.40;;;;;;;26.80;57.15;100717.59;5095336;28;20803;-73
2021/07/27 09:59:11;;;;;;;1.83;1.67;;;;;;;26.80;57.11;100723.13;5095527;28;20445;-74
2021/07/27 10:01:42;;;;;;;1.77;1.40;;;;;;;26.79;59.46;100738.25;5095492;28;20468;-71
2021/07/27 10:04:09;;;;;;;2.07;1.67;;;;;;;26.72;55.04;100729.16;5095430;28;20498;-74
2021/07/27 10:06:37;;;;;;;2.17;1.50;;;;;;;26.67;55.30;100733.16;5094959;28;20441;-74
2021/07/27 10:09:05;;;;;;;1.80;1.47;;;;;;;26.71;56.75;100735.91;5095339;28;20475;-74
2021/07/27 10:11:37;;;;;;;3.13;2.17;;;;;;;26.77;59.05;100723.94;5095475;28;20460;-73
2021/07/27 10:14:07;;;;;;;2.03;1.43;;;;;;;26.80;58.09;100725.91;5095381;28;20468;-73
2021/07/27 10:16:33;;;;;;;1.93;1.60;;;;;;;26.89;58.16;100726.25;5095497;28;20463;-74
2021/07/27 10:19:11;;;;;;;1.90;1.50;;;;;;;27.01;58.95;100721.41;5095417;28;20445;-74
2021/07/27 10:21:37;;;;;;;1.93;1.70;;;;;;;27.15;57.72;100724.88;5095401;28;20460;-71
2021/07/27 10:24:12;;;;;;;2.80;1.63;;;;;;;27.26;55.78;100733.09;5095308;28;20436;-74
2021/07/27 10:26:39;;;;;;;7.00;1.50;;;;;;;27.25;55.39;100734.31;5095152;28;20431;-73
2021/07/27 10:29:05;;;;;;;1.83;1.33;;;;;;;27.31;55.62;100735.44;5094619;28;20487;-74
2021/07/27 10:31:33;;;;;;;2.57;1.60;;;;;;;27.47;56.54;100736.88;5094647;28;20484;-74
2021/07/27 10:34:02;;;;;;;4.30;1.60;;;;;;;27.50;53.86;100728.50;5094897;28;20431;-73
2021/07/27 10:36:32;;;;;;;1.73;1.20;;;;;;;27.62;53.52;100729.94;5094939;28;20441;-74
2021/07/27 10:39:13;;;;;;;2.10;1.17;;;;;;;27.64;56.31;100736.69;5094767;28;20452;-74
2021/07/27 10:41:41;;;;;;;2.33;1.30;;;;;;;27.67;54.11;100738.66;5094748;28;20525;-72
2021/07/27 10:44:10;;;;;;;3.23;1.70;;;;;;;27.70;54.92;100728.66;5094663;28;20443;-73
2021/07/27 10:46:42;;;;;;;1.83;1.33;;;;;;;27.55;54.96;100719.69;5094341;28;20925;-73
2021/07/27 10:49:20;;;;;;;3.77;1.70;;;;;;;27.61;54.81;100723.59;5094515;28;20480;-75
2021/07/27 10:51:47;;;;;;;1.87;1.57;;;;;;;27.46;55.20;100724.19;5094571;28;20468;-73
2021/07/27 10:54:15;;;;;;;2.83;1.70;;;;;;;27.37;54.16;100719.88;5094509;28;20490;-73
2021/07/27 10:56:48;;;;;;;2.80;1.50;;;;;;;27.24;54.79;100723.59;5094462;28;20479;-74
2021/07/27 10:59:19;;;;;;;2.70;1.57;;;;;;;27.11;54.44;100723.31;5094515;28;20428;-73
2021/07/27 11:01:46;;;;;;;2.60;1.57;;;;;;;27.15;57.63;100721.28;5094040;28;20464;-72
2021/07/27 11:04:15;;;;;;;1.83;1.50;;;;;;;27.30;54.69;100714.38;5094375;28;20440;-74
2021/07/27 11:06:43;;;;;;;1.10;1.00;;;;;;;27.41;53.33;100717.06;5094259;28;20449;-73
2021/07/27 11:09:12;;;;;;;2.67;1.70;;;;;;;27.60;53.18;100726.81;5093898;28;20486;-75
2021/07/27 11:11:46;;;;;;;3.37;1.23;;;;;;;27.83;52.72;100721.38;5094201;28;20826;-76
2021/07/27 11:14:20;;;;;;;1.30;1.10;;;;;;;28.08;52.68;100723.88;5094026;28;20440;-72
2021/07/27 11:16:47;;;;;;;2.20;1.50;;;;;;;28.25;52.93;100729.63;5093797;28;20999;-72
2021/07/27 11:19:24;;;;;;;1.57;1.30;;;;;;;28.37;52.04;100738.22;5109903;28;20451;-75
2021/07/27 11:21:52;;;;;;;5.33;1.50;;;;;;;28.35;50.26;100734.28;5114336;28;20463;-74
2021/07/27 11:24:20;;;;;;;1.77;1.57;;;;;;;28.76;50.77;100727.69;5114040;28;20936;-74
2021/07/27 11:26:50;;;;;;;2.73;1.40;;;;;;;29.46;50.39;100732.50;5113958;28;20971;-73
2021/07/27 11:29:17;;;;;;;1.57;1.27;;;;;;;29.98;45.56;100726.34;5114191;28;20463;-74
2021/07/27 11:31:48;;;;;;;2.00;1.60;;;;;;;30.45;47.54;100732.50;5113851;28;20999;-74
2021/07/27 11:34:29;;;;;;;2.37;1.30;;;;;;;30.49;45.24;100730.41;5114000;28;20450;-74
2021/07/27 11:36:57;;;;;;;2.80;1.10;;;;;;;30.51;44.56;100722.38;5114327;28;20432;-74
2021/07/27 11:39:23;;;;;;;1.97;1.20;;;;;;;30.68;43.73;100717.59;5114120;28;20497;-73
2021/07/27 11:42:00;;;;;;;1.80;1.20;;;;;;;31.25;44.31;100718.97;5114020;28;20499;-75